sensor_id;sensor_type;location;lat;lon;timestamp;pressure;altitude;pressure_sealevel;temperature;humidity
38227;BME280;24026;49.446;8.576;2023-03-01T00:00:31;101522.53;;;12.14;29.28
38227;BME280;24026;49.446;8.576;2023-03-01T00:02:51;101519.28;;;12.12;29.16
38227;BME280;24026;49.446;8.576;2023-03-01T00:05:12;101516.03;;;12.10;29.37
38227;BME280;24026;49.446;8.576;2023-03-01T00:07:32;101518.69;;;12.10;29.07
38227;BME280;24026;49.446;8.576;2023-03-01T00:09:53;101514.97;;;12.11;29.25
38227;BME280;24026;49.446;8.576;2023-03-01T00:12:14;101511.50;;;12.10;29.07
38227;BME280;24026;49.446;8.576;2023-03-01T00:14:35;101517.06;;;12.09;29.54
38227;BME280;24026;49.446;8.576;2023-03-01T00:16:55;101517.28;;;12.07;29.11
38227;BME280;24026;49.446;8.576;2023-03-01T00:19:18;101514.63;;;12.07;29.26
38227;BME280;24026;49.446;8.576;2023-03-01T00:21:39;101515.19;;;12.09;29.27
38227;BME280;24026;49.446;8.576;2023-03-01T00:24:00;101518.56;;;12.04;29.14
38227;BME280;24026;49.446;8.576;2023-03-01T00:26:22;101514.25;;;12.03;29.31
38227;BME280;24026;49.446;8.576;2023-03-01T00:28:43;101513.22;;;12.04;29.24
38227;BME280;24026;49.446;8.576;2023-03-01T00:31:06;101517.94;;;12.02;29.37
38227;BME280;24026;49.446;8.576;2023-03-01T00:33:27;101521.66;;;12.01;29.24
38227;BME280;24026;49.446;8.576;2023-03-01T00:35:47;101510.16;;;12.01;29.30
38227;BME280;24026;49.446;8.576;2023-03-01T00:38:07;101518.16;;;12.01;29.30
38227;BME280;24026;49.446;8.576;2023-03-01T00:40:28;101521.06;;;11.99;29.58
38227;BME280;24026;49.446;8.576;2023-03-01T00:42:49;101526.63;;;11.98;29.66
38227;BME280;24026;49.446;8.576;2023-03-01T00:45:09;101525.22;;;11.95;29.41
38227;BME280;24026;49.446;8.576;2023-03-01T00:47:30;101522.53;;;11.95;29.49
38227;BME280;24026;49.446;8.576;2023-03-01T00:49:50;101526.84;;;11.96;29.57
38227;BME280;24026;49.446;8.576;2023-03-01T00:52:10;101532.41;;;11.95;29.44
38227;BME280;24026;49.446;8.576;2023-03-01T00:54:31;101527.28;;;11.93;29.46
38227;BME280;24026;49.446;8.576;2023-03-01T00:56:51;101521.97;;;11.93;29.51
38227;BME280;24026;49.446;8.576;2023-03-01T00:59:12;101517.84;;;11.91;29.41
38227;BME280;24026;49.446;8.576;2023-03-01T01:01:32;101519.13;;;11.88;29.63
38227;BME280;24026;49.446;8.576;2023-03-01T01:03:55;101502.72;;;11.91;29.47
38227;BME280;24026;49.446;8.576;2023-03-01T01:06:21;101501.50;;;11.87;29.52
38227;BME280;24026;49.446;8.576;2023-03-01T01:08:42;101490.84;;;11.87;29.50
38227;BME280;24026;49.446;8.576;2023-03-01T01:11:02;101496.41;;;11.85;29.48
38227;BME280;24026;49.446;8.576;2023-03-01T01:13:23;101493.50;;;11.87;29.44
38227;BME280;24026;49.446;8.576;2023-03-01T01:15:43;101495.59;;;11.85;29.65
38227;BME280;24026;49.446;8.576;2023-03-01T01:18:04;101486.78;;;11.84;29.53
38227;BME280;24026;49.446;8.576;2023-03-01T01:20:24;101490.47;;;11.83;29.79
38227;BME280;24026;49.446;8.576;2023-03-01T01:22:44;101492.13;;;11.84;29.60
38227;BME280;24026;49.446;8.576;2023-03-01T01:25:05;101493.38;;;11.82;29.64
38227;BME280;24026;49.446;8.576;2023-03-01T01:27:25;101487.00;;;11.83;29.71
38227;BME280;24026;49.446;8.576;2023-03-01T01:29:46;101475.75;;;11.81;29.64
38227;BME280;24026;49.446;8.576;2023-03-01T01:32:06;101483.16;;;11.79;29.70
38227;BME280;24026;49.446;8.576;2023-03-01T01:34:27;101469.25;;;11.77;29.55
38227;BME280;24026;49.446;8.576;2023-03-01T01:36:49;101471.09;;;11.76;29.64
38227;BME280;24026;49.446;8.576;2023-03-01T01:39:09;101456.97;;;11.76;29.89
38227;BME280;24026;49.446;8.576;2023-03-01T01:41:33;101457.78;;;11.76;29.76
38227;BME280;24026;49.446;8.576;2023-03-01T01:44:29;101452.31;;;11.71;29.73
38227;BME280;24026;49.446;8.576;2023-03-01T01:52:09;101449.66;;;11.71;29.65
38227;BME280;24026;49.446;8.576;2023-03-01T01:54:39;101443.34;;;11.65;29.78
38227;BME280;24026;49.446;8.576;2023-03-01T01:57:03;101442.91;;;11.68;30.01
38227;BME280;24026;49.446;8.576;2023-03-01T01:59:28;101442.09;;;11.68;29.76
38227;BME280;24026;49.446;8.576;2023-03-01T02:01:52;101442.91;;;11.68;29.83
38227;BME280;24026;49.446;8.576;2023-03-01T02:04:12;101437.00;;;11.66;29.91
38227;BME280;24026;49.446;8.576;2023-03-01T02:06:44;101424.94;;;11.64;29.86
38227;BME280;24026;49.446;8.576;2023-03-01T02:09:13;101421.47;;;11.63;29.93
38227;BME280;24026;49.446;8.576;2023-03-01T02:11:34;101428.19;;;11.66;29.99
38227;BME280;24026;49.446;8.576;2023-03-01T02:13:57;101428.44;;;11.64;29.91
38227;BME280;24026;49.446;8.576;2023-03-01T02:16:19;101421.47;;;11.63;29.85
38227;BME280;24026;49.446;8.576;2023-03-01T02:18:41;101418.00;;;11.63;29.85
38227;BME280;24026;49.446;8.576;2023-03-01T02:21:17;101418.81;;;11.63;29.96
38227;BME280;24026;49.446;8.576;2023-03-01T02:23:41;101413.13;;;11.60;29.93
38227;BME280;24026;49.446;8.576;2023-03-01T02:26:18;101418.66;;;11.58;30.10
38227;BME280;24026;49.446;8.576;2023-03-01T02:28:42;101412.28;;;11.59;29.95
38227;BME280;24026;49.446;8.576;2023-03-01T02:31:05;101408.59;;;11.60;29.79
38227;BME280;24026;49.446;8.576;2023-03-01T02:33:46;101412.28;;;11.59;30.07
38227;BME280;24026;49.446;8.576;2023-03-01T02:36:11;101401.88;;;11.58;29.99
38227;BME280;24026;49.446;8.576;2023-03-01T02:38:34;101399.22;;;11.58;29.97
38227;BME280;24026;49.446;8.576;2023-03-01T02:40:54;101396.56;;;11.58;30.25
38227;BME280;24026;49.446;8.576;2023-03-01T02:43:18;101392.47;;;11.55;30.04
38227;BME280;24026;49.446;8.576;2023-03-01T02:45:48;101385.50;;;11.54;29.90
38227;BME280;24026;49.446;8.576;2023-03-01T02:48:09;101385.50;;;11.54;29.95
38227;BME280;24026;49.446;8.576;2023-03-01T02:53:09;101383.53;;;11.49;30.12
38227;BME280;24026;49.446;8.576;2023-03-01T02:55:32;101385.50;;;11.54;30.05
38227;BME280;24026;49.446;8.576;2023-03-01T02:57:53;101378.81;;;11.52;30.08
38227;BME280;24026;49.446;8.576;2023-03-01T03:00:23;101382.28;;;11.52;29.83
38227;BME280;24026;49.446;8.576;2023-03-01T03:02:46;101380.41;;;11.53;30.27
38227;BME280;24026;49.446;8.576;2023-03-01T03:05:14;101373.47;;;11.52;30.09
38227;BME280;24026;49.446;8.576;2023-03-01T03:07:37;101373.25;;;11.53;29.84
38227;BME280;24026;49.446;8.576;2023-03-01T03:09:57;101363.06;;;11.50;30.23
38227;BME280;24026;49.446;8.576;2023-03-01T03:12:18;101364.91;;;11.49;30.20
38227;BME280;24026;49.446;8.576;2023-03-01T03:14:38;101365.72;;;11.50;30.15
38227;BME280;24026;49.446;8.576;2023-03-01T03:17:01;101358.16;;;11.47;30.12
38227;BME280;24026;49.446;8.576;2023-03-01T03:19:26;101355.28;;;11.48;30.15
38227;BME280;24026;49.446;8.576;2023-03-01T03:21:47;101355.50;;;11.47;30.48
38227;BME280;24026;49.446;8.576;2023-03-01T03:24:07;101358.38;;;11.45;30.16
38227;BME280;24026;49.446;8.576;2023-03-01T03:26:28;101350.41;;;11.45;30.27
38227;BME280;24026;49.446;8.576;2023-03-01T03:28:48;101353.88;;;11.46;30.20
38227;BME280;24026;49.446;8.576;2023-03-01T03:31:09;101347.97;;;11.44;30.32
38227;BME280;24026;49.446;8.576;2023-03-01T03:33:32;101345.31;;;11.44;30.30
38227;BME280;24026;49.446;8.576;2023-03-01T03:35:53;101341.03;;;11.43;30.18
38227;BME280;24026;49.446;8.576;2023-03-01T03:38:15;101340.41;;;11.41;30.25
38227;BME280;24026;49.446;8.576;2023-03-01T03:40:38;101346.34;;;11.43;30.07
38227;BME280;24026;49.446;8.576;2023-03-01T03:42:59;101339.41;;;11.42;30.17
38227;BME280;24026;49.446;8.576;2023-03-01T03:45:19;101342.28;;;11.40;30.34
38227;BME280;24026;49.446;8.576;2023-03-01T03:47:40;101344.13;;;11.40;30.72
38227;BME280;24026;49.446;8.576;2023-03-01T03:50:00;101339.84;;;11.39;30.32
38227;BME280;24026;49.446;8.576;2023-03-01T03:52:20;101345.38;;;11.37;30.30
38227;BME280;24026;49.446;8.576;2023-03-01T03:54:41;101341.69;;;11.38;30.30
38227;BME280;24026;49.446;8.576;2023-03-01T03:57:01;101338.91;;;11.33;30.42
38227;BME280;24026;49.446;8.576;2023-03-01T03:59:22;101339.47;;;11.35;30.70
38227;BME280;24026;49.446;8.576;2023-03-01T04:01:42;101329.84;;;11.34;30.49
38227;BME280;24026;49.446;8.576;2023-03-01T04:04:04;101335.19;;;11.34;30.35
38227;BME280;24026;49.446;8.576;2023-03-01T04:06:25;101328.03;;;11.35;30.33
38227;BME280;24026;49.446;8.576;2023-03-01T04:08:45;101322.94;;;11.33;30.41
38227;BME280;24026;49.446;8.576;2023-03-01T04:11:05;101317.03;;;11.31;30.54
38227;BME280;24026;49.446;8.576;2023-03-01T04:13:45;101321.72;;;11.29;30.34
38227;BME280;24026;49.446;8.576;2023-03-01T04:16:05;101322.56;;;11.29;30.38
38227;BME280;24026;49.446;8.576;2023-03-01T04:18:26;101317.03;;;11.31;30.54
38227;BME280;24026;49.446;8.576;2023-03-01T04:20:47;101326.03;;;11.30;30.53
38227;BME280;24026;49.446;8.576;2023-03-01T04:23:10;101330.78;;;11.28;30.50
38227;BME280;24026;49.446;8.576;2023-03-01T04:25:33;101328.91;;;11.28;30.64
38227;BME280;24026;49.446;8.576;2023-03-01T04:27:53;101328.09;;;11.28;30.55
38227;BME280;24026;49.446;8.576;2023-03-01T04:30:14;101328.91;;;11.28;30.50
38227;BME280;24026;49.446;8.576;2023-03-01T04:32:35;101331.00;;;11.26;30.51
38227;BME280;24026;49.446;8.576;2023-03-01T04:34:55;101333.66;;;11.26;30.56
38227;BME280;24026;49.446;8.576;2023-03-01T04:37:15;101330.16;;;11.26;30.56
38227;BME280;24026;49.446;8.576;2023-03-01T04:39:36;101334.91;;;11.24;30.61
38227;BME280;24026;49.446;8.576;2023-03-01T04:42:05;101337.56;;;11.24;30.80
38227;BME280;24026;49.446;8.576;2023-03-01T04:44:25;101332.22;;;11.24;30.68
38227;BME280;24026;49.446;8.576;2023-03-01T04:46:48;101335.13;;;11.22;30.66
38227;BME280;24026;49.446;8.576;2023-03-01T04:49:09;101345.75;;;11.22;30.65
38227;BME280;24026;49.446;8.576;2023-03-01T04:51:30;101339.63;;;11.22;30.49
38227;BME280;24026;49.446;8.576;2023-03-01T04:53:52;101333.16;;;11.18;30.81
38227;BME280;24026;49.446;8.576;2023-03-01T04:56:13;101339.28;;;11.18;30.61
38227;BME280;24026;49.446;8.576;2023-03-01T04:58:34;101337.19;;;11.20;30.73
38227;BME280;24026;49.446;8.576;2023-03-01T05:00:55;101339.13;;;11.31;30.60
38227;BME280;24026;49.446;8.576;2023-03-01T05:03:15;101336.06;;;11.46;30.29
38227;BME280;24026;49.446;8.576;2023-03-01T05:05:38;101329.53;;;11.61;30.13
38227;BME280;24026;49.446;8.576;2023-03-01T05:08:01;101324.16;;;11.79;29.86
38227;BME280;24026;49.446;8.576;2023-03-01T05:10:23;101320.66;;;11.97;29.60
38227;BME280;24026;49.446;8.576;2023-03-01T05:12:43;101324.06;;;12.16;29.34
38227;BME280;24026;49.446;8.576;2023-03-01T05:15:05;101321.31;;;12.35;29.12
38227;BME280;24026;49.446;8.576;2023-03-01T05:17:27;101322.47;;;12.51;28.79
38227;BME280;24026;49.446;8.576;2023-03-01T05:19:47;101325.72;;;12.65;28.81
38227;BME280;24026;49.446;8.576;2023-03-01T05:22:07;101325.81;;;12.82;28.54
38227;BME280;24026;49.446;8.576;2023-03-01T05:24:33;101316.97;;;12.93;28.18
38227;BME280;24026;49.446;8.576;2023-03-01T05:26:53;101323.94;;;13.06;28.14
38227;BME280;24026;49.446;8.576;2023-03-01T05:29:14;101324.72;;;13.18;28.07
38227;BME280;24026;49.446;8.576;2023-03-01T05:31:34;101324.09;;;13.28;27.97
38227;BME280;24026;49.446;8.576;2023-03-01T05:33:55;101325.72;;;13.41;27.69
38227;BME280;24026;49.446;8.576;2023-03-01T05:36:15;101324.31;;;13.50;27.58
38227;BME280;24026;49.446;8.576;2023-03-01T05:38:35;101328.44;;;13.58;27.78
38227;BME280;24026;49.446;8.576;2023-03-01T05:40:56;101329.13;;;13.65;27.33
38227;BME280;24026;49.446;8.576;2023-03-01T05:43:16;101323.72;;;13.77;27.28
38227;BME280;24026;49.446;8.576;2023-03-01T05:45:38;101322.03;;;13.87;27.13
38227;BME280;24026;49.446;8.576;2023-03-01T05:47:59;101320.53;;;13.92;27.28
38227;BME280;24026;49.446;8.576;2023-03-01T05:50:22;101327.06;;;14.01;26.96
38227;BME280;24026;49.446;8.576;2023-03-01T05:52:47;101324.00;;;14.09;27.05
38227;BME280;24026;49.446;8.576;2023-03-01T05:55:08;101323.84;;;14.16;26.67
38227;BME280;24026;49.446;8.576;2023-03-01T05:57:29;101318.34;;;14.22;26.82
38227;BME280;24026;49.446;8.576;2023-03-01T05:59:49;101318.97;;;14.30;26.66
38227;BME280;24026;49.446;8.576;2023-03-01T06:02:10;101319.41;;;14.38;26.58
38227;BME280;24026;49.446;8.576;2023-03-01T06:04:30;101324.31;;;14.46;26.57
38227;BME280;24026;49.446;8.576;2023-03-01T06:06:51;101329.50;;;14.53;26.39
38227;BME280;24026;49.446;8.576;2023-03-01T06:09:11;101324.97;;;14.54;26.44
38227;BME280;24026;49.446;8.576;2023-03-01T06:11:33;101327.59;;;14.49;26.90
38227;BME280;24026;49.446;8.576;2023-03-01T06:13:54;101324.50;;;14.57;26.59
38227;BME280;24026;49.446;8.576;2023-03-01T06:16:14;101328.16;;;14.68;26.46
38227;BME280;24026;49.446;8.576;2023-03-01T06:18:35;101324.81;;;14.77;26.21
38227;BME280;24026;49.446;8.576;2023-03-01T06:20:56;101319.75;;;14.81;26.33
38227;BME280;24026;49.446;8.576;2023-03-01T06:23:16;101328.94;;;14.85;26.21
38227;BME280;24026;49.446;8.576;2023-03-01T06:25:37;101327.19;;;14.96;26.02
38227;BME280;24026;49.446;8.576;2023-03-01T06:27:57;101334.00;;;15.04;25.88
38227;BME280;24026;49.446;8.576;2023-03-01T06:30:19;101325.97;;;15.04;26.12
38227;BME280;24026;49.446;8.576;2023-03-01T06:32:40;101326.56;;;15.11;25.92
38227;BME280;24026;49.446;8.576;2023-03-01T06:35:04;101325.06;;;15.20;25.68
38227;BME280;24026;49.446;8.576;2023-03-01T06:37:25;101323.28;;;15.26;25.80
38227;BME280;24026;49.446;8.576;2023-03-01T06:39:46;101317.22;;;15.35;25.61
38227;BME280;24026;49.446;8.576;2023-03-01T06:42:07;101324.81;;;15.44;25.46
38227;BME280;24026;49.446;8.576;2023-03-01T06:44:28;101317.94;;;15.53;25.33
38227;BME280;24026;49.446;8.576;2023-03-01T06:46:49;101312.13;;;15.61;25.27
38227;BME280;24026;49.446;8.576;2023-03-01T06:49:09;101314.13;;;15.71;25.18
38227;BME280;24026;49.446;8.576;2023-03-01T06:51:30;101314.50;;;15.80;25.16
38227;BME280;24026;49.446;8.576;2023-03-01T06:53:50;101315.91;;;15.87;25.04
38227;BME280;24026;49.446;8.576;2023-03-01T06:56:10;101312.19;;;15.93;24.95
38227;BME280;24026;49.446;8.576;2023-03-01T06:58:31;101324.84;;;15.98;24.98
38227;BME280;24026;49.446;8.576;2023-03-01T07:00:51;101320.34;;;16.04;25.02
38227;BME280;24026;49.446;8.576;2023-03-01T07:03:11;101313.53;;;15.91;25.23
38227;BME280;24026;49.446;8.576;2023-03-01T07:05:33;101317.16;;;15.80;25.28
38227;BME280;24026;49.446;8.576;2023-03-01T07:07:53;101319.56;;;15.54;25.71
38227;BME280;24026;49.446;8.576;2023-03-01T07:10:15;101315.97;;;15.43;25.59
38227;BME280;24026;49.446;8.576;2023-03-01T07:12:35;101315.59;;;15.34;26.06
38227;BME280;24026;49.446;8.576;2023-03-01T07:14:56;101313.38;;;15.26;26.22
38227;BME280;24026;49.446;8.576;2023-03-01T07:17:16;101313.25;;;15.16;26.38
38227;BME280;24026;49.446;8.576;2023-03-01T07:19:37;101315.00;;;15.05;26.38
38227;BME280;24026;49.446;8.576;2023-03-01T07:21:57;101311.00;;;15.08;26.55
38227;BME280;24026;49.446;8.576;2023-03-01T07:24:17;101306.97;;;15.05;26.28
38227;BME280;24026;49.446;8.576;2023-03-01T07:26:38;101301.88;;;15.04;26.41
38227;BME280;24026;49.446;8.576;2023-03-01T07:28:59;101302.59;;;14.99;26.49
38227;BME280;24026;49.446;8.576;2023-03-01T07:31:20;101302.84;;;14.97;26.41
38227;BME280;24026;49.446;8.576;2023-03-01T07:33:40;101292.81;;;15.10;26.31
38227;BME280;24026;49.446;8.576;2023-03-01T07:36:02;101287.56;;;15.20;26.09
38227;BME280;24026;49.446;8.576;2023-03-01T07:38:23;101284.47;;;15.28;26.20
38227;BME280;24026;49.446;8.576;2023-03-01T07:40:43;101289.66;;;15.40;25.94
38227;BME280;24026;49.446;8.576;2023-03-01T07:43:04;101280.19;;;15.54;25.88
38227;BME280;24026;49.446;8.576;2023-03-01T07:45:25;101281.38;;;15.64;25.60
38227;BME280;24026;49.446;8.576;2023-03-01T07:47:45;101287.19;;;15.83;25.39
38227;BME280;24026;49.446;8.576;2023-03-01T07:50:06;101276.84;;;15.97;25.19
38227;BME280;24026;49.446;8.576;2023-03-01T07:52:27;101276.16;;;16.11;25.08
38227;BME280;24026;49.446;8.576;2023-03-01T07:54:47;101273.28;;;16.23;24.90
38227;BME280;24026;49.446;8.576;2023-03-01T07:57:07;101280.88;;;16.37;24.84
38227;BME280;24026;49.446;8.576;2023-03-01T07:59:28;101268.63;;;16.51;24.85
38227;BME280;24026;49.446;8.576;2023-03-01T08:01:49;101271.09;;;16.63;24.80
38227;BME280;24026;49.446;8.576;2023-03-01T08:04:10;101264.16;;;16.72;24.47
38227;BME280;24026;49.446;8.576;2023-03-01T08:06:30;101260.72;;;16.82;24.69
38227;BME280;24026;49.446;8.576;2023-03-01T08:08:51;101261.59;;;16.88;24.33
38227;BME280;24026;49.446;8.576;2023-03-01T08:11:13;101267.94;;;16.76;24.64
38227;BME280;24026;49.446;8.576;2023-03-01T08:13:34;101261.44;;;16.67;24.46
38227;BME280;24026;49.446;8.576;2023-03-01T08:15:59;101267.53;;;16.52;24.88
38227;BME280;24026;49.446;8.576;2023-03-01T08:18:21;101274.75;;;16.41;24.90
38227;BME280;24026;49.446;8.576;2023-03-01T08:20:41;101269.84;;;16.33;25.20
38227;BME280;24026;49.446;8.576;2023-03-01T08:23:02;101270.91;;;16.32;25.09
38227;BME280;24026;49.446;8.576;2023-03-01T08:25:22;101269.78;;;16.23;25.20
38227;BME280;24026;49.446;8.576;2023-03-01T08:27:42;101270.06;;;16.21;25.33
38227;BME280;24026;49.446;8.576;2023-03-01T08:30:04;101268.69;;;16.19;25.31
38227;BME280;24026;49.446;8.576;2023-03-01T08:32:25;101259.31;;;16.21;25.12
38227;BME280;24026;49.446;8.576;2023-03-01T08:34:48;101266.56;;;16.21;25.28
38227;BME280;24026;49.446;8.576;2023-03-01T08:37:08;101256.91;;;16.20;25.40
38227;BME280;24026;49.446;8.576;2023-03-01T08:39:29;101247.19;;;16.14;25.43
38227;BME280;24026;49.446;8.576;2023-03-01T08:41:50;101252.56;;;16.14;25.23
38227;BME280;24026;49.446;8.576;2023-03-01T08:44:13;101252.28;;;16.15;25.35
38227;BME280;24026;49.446;8.576;2023-03-01T08:46:36;101249.06;;;16.13;25.33
38227;BME280;24026;49.446;8.576;2023-03-01T08:48:57;101250.69;;;16.14;25.33
38227;BME280;24026;49.446;8.576;2023-03-01T08:51:18;101251.75;;;16.13;25.43
38227;BME280;24026;49.446;8.576;2023-03-01T08:53:40;101245.31;;;16.09;25.32
38227;BME280;24026;49.446;8.576;2023-03-01T08:56:01;101243.94;;;16.06;25.51
38227;BME280;24026;49.446;8.576;2023-03-01T08:58:22;101239.91;;;16.04;25.55
38227;BME280;24026;49.446;8.576;2023-03-01T09:00:43;101237.53;;;16.07;25.64
38227;BME280;24026;49.446;8.576;2023-03-01T09:03:03;101234.91;;;16.18;25.44
38227;BME280;24026;49.446;8.576;2023-03-01T09:05:24;101236.03;;;16.32;25.24
38227;BME280;24026;49.446;8.576;2023-03-01T09:07:44;101232.09;;;16.45;25.12
38227;BME280;24026;49.446;8.576;2023-03-01T09:10:05;101218.50;;;16.62;24.82
38227;BME280;24026;49.446;8.576;2023-03-01T09:12:26;101217.50;;;16.78;24.74
38227;BME280;24026;49.446;8.576;2023-03-01T09:14:46;101212.75;;;16.91;24.65
38227;BME280;24026;49.446;8.576;2023-03-01T09:17:06;101222.69;;;17.06;24.42
38227;BME280;24026;49.446;8.576;2023-03-01T09:19:27;101213.34;;;17.23;24.12
38227;BME280;24026;49.446;8.576;2023-03-01T09:21:47;101211.50;;;17.39;23.93
38227;BME280;24026;49.446;8.576;2023-03-01T09:24:14;101209.09;;;17.48;24.03
38227;BME280;24026;49.446;8.576;2023-03-01T09:26:34;101222.78;;;17.62;23.79
38227;BME280;24026;49.446;8.576;2023-03-01T09:28:56;101214.19;;;17.70;23.94
38227;BME280;24026;49.446;8.576;2023-03-01T09:31:18;101214.72;;;17.62;23.89
38227;BME280;24026;49.446;8.576;2023-03-01T09:33:40;101216.88;;;17.65;23.96
38227;BME280;24026;49.446;8.576;2023-03-01T09:36:03;101216.63;;;17.56;23.73
38227;BME280;24026;49.446;8.576;2023-03-01T09:38:24;101211.50;;;17.50;23.94
38227;BME280;24026;49.446;8.576;2023-03-01T09:40:45;101205.59;;;17.43;24.14
38227;BME280;24026;49.446;8.576;2023-03-01T09:43:13;101198.34;;;17.38;24.24
38227;BME280;24026;49.446;8.576;2023-03-01T09:45:40;101209.59;;;17.30;24.24
38227;BME280;24026;49.446;8.576;2023-03-01T09:48:02;101206.38;;;17.28;24.41
38227;BME280;24026;49.446;8.576;2023-03-01T09:50:34;101205.56;;;17.27;24.34
38227;BME280;24026;49.446;8.576;2023-03-01T09:53:02;101209.06;;;17.28;24.24
38227;BME280;24026;49.446;8.576;2023-03-01T09:55:38;101203.69;;;17.22;24.35
38227;BME280;24026;49.446;8.576;2023-03-01T10:00:47;101201.81;;;17.18;24.46
38227;BME280;24026;49.446;8.576;2023-03-01T10:03:27;101194.78;;;17.12;24.45
38227;BME280;24026;49.446;8.576;2023-03-01T10:06:03;101195.88;;;17.11;24.38
38227;BME280;24026;49.446;8.576;2023-03-01T10:08:38;101192.63;;;17.09;24.59
38227;BME280;24026;49.446;8.576;2023-03-01T10:11:03;101192.91;;;17.12;24.51
38227;BME280;24026;49.446;8.576;2023-03-01T10:15:57;101190.19;;;17.02;24.66
38227;BME280;24026;49.446;8.576;2023-03-01T10:18:26;101189.94;;;16.98;24.71
38227;BME280;24026;49.446;8.576;2023-03-01T10:21:02;101189.66;;;16.95;24.79
38227;BME280;24026;49.446;8.576;2023-03-01T10:23:23;101182.34;;;16.80;24.79
38227;BME280;24026;49.446;8.576;2023-03-01T10:28:20;101176.75;;;16.87;25.03
38227;BME280;24026;49.446;8.576;2023-03-01T10:30:44;101170.06;;;16.89;24.97
38227;BME280;24026;49.446;8.576;2023-03-01T10:33:17;101170.56;;;16.86;24.97
38227;BME280;24026;49.446;8.576;2023-03-01T10:35:40;101167.06;;;16.85;24.91
38227;BME280;24026;49.446;8.576;2023-03-01T10:38:07;101157.13;;;16.81;25.04
38227;BME280;24026;49.446;8.576;2023-03-01T10:40:28;101154.16;;;16.77;25.02
38227;BME280;24026;49.446;8.576;2023-03-01T10:42:49;101151.44;;;16.72;25.17
38227;BME280;24026;49.446;8.576;2023-03-01T10:48:03;101145.50;;;16.65;25.21
38227;BME280;24026;49.446;8.576;2023-03-01T10:50:23;101147.13;;;16.66;25.34
38227;BME280;24026;49.446;8.576;2023-03-01T10:52:58;101140.66;;;16.62;25.19
38227;BME280;24026;49.446;8.576;2023-03-01T10:55:26;101135.81;;;16.59;25.22
38227;BME280;24026;49.446;8.576;2023-03-01T10:57:47;101126.47;;;16.66;25.00
38227;BME280;24026;49.446;8.576;2023-03-01T11:00:25;101114.16;;;16.81;25.04
38227;BME280;24026;49.446;8.576;2023-03-01T11:03:01;101111.81;;;17.00;24.56
38227;BME280;24026;49.446;8.576;2023-03-01T11:05:24;101110.22;;;17.25;24.58
38227;BME280;24026;49.446;8.576;2023-03-01T11:07:58;101103.50;;;17.43;24.12
38227;BME280;24026;49.446;8.576;2023-03-01T11:10:24;101104.53;;;17.62;24.06
38227;BME280;24026;49.446;8.576;2023-03-01T11:12:46;101098.03;;;17.84;23.83
38227;BME280;24026;49.446;8.576;2023-03-01T11:15:26;101094.50;;;18.04;23.38
38227;BME280;24026;49.446;8.576;2023-03-01T11:17:47;101102.25;;;18.21;23.33
38227;BME280;24026;49.446;8.576;2023-03-01T11:22:34;101087.63;;;18.42;23.03
38227;BME280;24026;49.446;8.576;2023-03-01T11:24:55;101083.56;;;18.50;23.29
38227;BME280;24026;49.446;8.576;2023-03-01T11:27:24;101074.66;;;18.55;23.05
38227;BME280;24026;49.446;8.576;2023-03-01T11:29:52;101070.09;;;18.50;23.13
38227;BME280;24026;49.446;8.576;2023-03-01T11:32:14;101073.34;;;18.47;23.07
38227;BME280;24026;49.446;8.576;2023-03-01T11:34:47;101065.06;;;18.38;23.21
38227;BME280;24026;49.446;8.576;2023-03-01T11:37:22;101063.72;;;18.30;23.14
38227;BME280;24026;49.446;8.576;2023-03-01T11:42:34;101051.94;;;18.26;23.55
38227;BME280;24026;49.446;8.576;2023-03-01T11:44:59;101049.78;;;18.23;23.52
38227;BME280;24026;49.446;8.576;2023-03-01T11:47:48;101045.22;;;18.19;23.43
38227;BME280;24026;49.446;8.576;2023-03-01T11:50:39;101042.31;;;18.10;23.71
38227;BME280;24026;49.446;8.576;2023-03-01T11:53:06;101038.56;;;18.11;23.76
38227;BME280;24026;49.446;8.576;2023-03-01T11:58:57;101034.31;;;17.94;23.94
38227;BME280;24026;49.446;8.576;2023-03-01T12:22:45;100975.81;;;17.55;24.69
38227;BME280;24026;49.446;8.576;2023-03-01T12:25:25;100977.44;;;17.51;24.74
38227;BME280;24026;49.446;8.576;2023-03-01T12:32:56;100978.81;;;17.44;24.74
38227;BME280;24026;49.446;8.576;2023-03-01T12:38:20;100963.78;;;17.32;24.92
38227;BME280;24026;49.446;8.576;2023-03-01T12:46:01;100952.00;;;17.28;24.90
38227;BME280;24026;49.446;8.576;2023-03-01T12:48:34;100938.81;;;17.27;24.91
38227;BME280;24026;49.446;8.576;2023-03-01T12:51:00;100936.69;;;17.23;25.12
38227;BME280;24026;49.446;8.576;2023-03-01T12:53:22;100924.06;;;17.24;24.93
38227;BME280;24026;49.446;8.576;2023-03-01T12:55:44;100929.16;;;17.20;25.28
38227;BME280;24026;49.446;8.576;2023-03-01T12:58:31;100924.06;;;17.19;25.33
38227;BME280;24026;49.446;8.576;2023-03-01T13:01:13;100931.59;;;17.12;25.43
38227;BME280;24026;49.446;8.576;2023-03-01T13:03:39;100917.94;;;17.08;25.36
38227;BME280;24026;49.446;8.576;2023-03-01T13:06:19;100924.94;;;17.04;25.35
38227;BME280;24026;49.446;8.576;2023-03-01T13:08:49;100926.53;;;17.05;25.51
38227;BME280;24026;49.446;8.576;2023-03-01T13:11:19;100921.69;;;17.02;25.74
38227;BME280;24026;49.446;8.576;2023-03-01T13:13:40;100922.50;;;17.02;25.55
38227;BME280;24026;49.446;8.576;2023-03-01T13:18:49;100916.84;;;16.99;25.85
38227;BME280;24026;49.446;8.576;2023-03-01T13:21:09;100913.91;;;16.95;25.78
38227;BME280;24026;49.446;8.576;2023-03-01T13:23:34;100909.91;;;16.93;25.77
38227;BME280;24026;49.446;8.576;2023-03-01T13:30:54;100892.44;;;16.95;25.70
38227;BME280;24026;49.446;8.576;2023-03-01T13:35:47;100883.53;;;17.10;25.62
38227;BME280;24026;49.446;8.576;2023-03-01T13:38:46;100873.81;;;17.30;25.41
38227;BME280;24026;49.446;8.576;2023-03-01T13:41:07;100873.16;;;17.53;25.00